Time;durP1;ratioP1;P1;durP2;ratioP2;P2;SDS_P1;SDS_P2;PMS_P1;PMS_P2;Temp;Humidity;BMP_temperature;BMP_pressure;BME280_temperature;BME280_humidity;BME280_pressure;Samples;Min_cycle;Max_cycle;Signal;HPM_P1;HPM_P2
2022/01/17 00:01:35;;;;;;;25.00;12.53;;;7.80;59.10;;;;;;5057784;28;20484;-88
2022/01/17 00:04:03;;;;;;;24.37;13.80;;;7.70;59.20;;;;;;5073396;28;20467;-87
2022/01/17 00:06:30;;;;;;;22.50;13.67;;;7.50;59.60;;;;;;5073948;28;20539;-87
2022/01/17 00:08:57;;;;;;;28.90;13.50;;;7.70;59.80;;;;;;5053317;28;20558;-88
2022/01/17 00:11:24;;;;;;;25.87;13.27;;;7.90;59.30;;;;;;5072473;28;20479;-88
2022/01/17 00:13:51;;;;;;;27.47;13.70;;;8.10;58.90;;;;;;5077421;28;20572;-87
2022/01/17 00:16:22;;;;;;;26.13;13.20;;;8.00;58.90;;;;;;5070459;28;20452;-88
2022/01/17 00:21:37;;;;;;;23.00;11.77;;;7.80;59.20;;;;;;5074308;28;20467;-87
2022/01/17 00:24:05;;;;;;;26.57;13.97;;;7.80;59.20;;;;;;5057019;28;20838;-88
2022/01/17 00:26:32;;;;;;;25.97;13.03;;;7.70;59.40;;;;;;5074502;28;20547;-88
2022/01/17 00:28:59;;;;;;;23.97;13.10;;;7.90;59.20;;;;;;5072612;28;21028;-87
2022/01/17 00:31:26;;;;;;;27.57;14.43;;;7.90;59.10;;;;;;5071468;28;20554;-86
2022/01/17 00:33:53;;;;;;;25.53;14.13;;;7.70;59.10;;;;;;5070653;28;20539;-88
2022/01/17 00:36:20;;;;;;;28.00;14.03;;;7.70;59.30;;;;;;5063950;28;20547;-86
2022/01/17 00:38:48;;;;;;;28.60;13.10;;;7.80;59.30;;;;;;5057770;28;20441;-88
2022/01/17 00:41:15;;;;;;;26.30;13.47;;;8.00;59.10;;;;;;5071595;28;20468;-87
2022/01/17 00:43:42;;;;;;;32.73;13.17;;;8.10;58.60;;;;;;5074863;28;20550;-87
2022/01/17 00:46:10;;;;;;;28.80;14.93;;;8.20;58.50;;;;;;5037682;28;20456;-87
2022/01/17 00:48:37;;;;;;;28.17;12.23;;;8.20;58.50;;;;;;5037592;28;21266;-87
2022/01/17 00:51:04;;;;;;;25.90;15.13;;;8.30;58.40;;;;;;5059325;28;20490;-87
2022/01/17 00:53:31;;;;;;;27.90;13.40;;;8.20;58.60;;;;;;5073181;28;20543;-88
2022/01/17 00:56:00;;;;;;;28.03;13.77;;;8.20;58.50;;;;;;5073518;28;20519;-87
2022/01/17 00:58:27;;;;;;;22.80;13.07;;;8.20;58.50;;;;;;5056635;28;20551;-87
2022/01/17 01:00:54;;;;;;;24.53;13.10;;;8.20;58.90;;;;;;5075883;28;20643;-88
2022/01/17 01:03:21;;;;;;;25.40;12.57;;;8.00;59.00;;;;;;5057129;28;20456;-88
2022/01/17 01:05:48;;;;;;;28.60;11.97;;;8.10;59.10;;;;;;5074279;28;20459;-86
2022/01/17 01:08:15;;;;;;;25.50;13.10;;;8.00;59.10;;;;;;5054834;28;20452;-88
2022/01/17 01:10:42;;;;;;;23.17;14.17;;;8.00;59.30;;;;;;5072352;28;22177;-89
2022/01/17 01:13:11;;;;;;;25.77;12.90;;;8.00;59.20;;;;;;5071824;28;20455;-88
2022/01/17 01:16:08;;;;;;;25.93;13.20;;;8.00;59.20;;;;;;5073941;28;20547;-88
2022/01/17 01:19:00;;;;;;;28.33;12.20;;;8.00;59.40;;;;;;5071803;28;20440;-88
2022/01/17 01:21:45;;;;;;;24.27;11.93;;;8.10;59.30;;;;;;5077759;28;20475;-88
2022/01/17 01:29:58;;;;;;;20.33;11.07;;;8.20;58.40;;;;;;5013438;28;20570;-88
2022/01/17 01:32:32;;;;;;;16.37;10.73;;;8.00;58.60;;;;;;5059436;28;20503;-87
2022/01/17 01:35:01;;;;;;;19.13;11.20;;;7.90;59.30;;;;;;5058625;28;20462;-88
2022/01/17 01:37:28;;;;;;;20.47;11.70;;;7.80;59.40;;;;;;5057290;28;20491;-87
2022/01/17 01:39:56;;;;;;;17.00;10.37;;;7.70;59.50;;;;;;5058384;28;20535;-88
2022/01/17 01:42:24;;;;;;;17.50;10.70;;;7.70;59.90;;;;;;5075972;28;20851;-85
2022/01/17 01:44:52;;;;;;;22.33;11.53;;;7.90;59.60;;;;;;5076351;28;20457;-87
2022/01/17 01:47:23;;;;;;;16.80;10.20;;;7.90;59.60;;;;;;5078891;28;20451;-87
2022/01/17 01:49:50;;;;;;;20.40;11.77;;;8.00;59.90;;;;;;5079299;28;20495;-87
2022/01/17 01:52:18;;;;;;;16.83;11.13;;;8.00;59.20;;;;;;5075512;28;20838;-89
2022/01/17 01:54:45;;;;;;;16.97;10.23;;;8.20;58.90;;;;;;5076683;28;20493;-87
2022/01/17 01:57:12;;;;;;;22.67;11.50;;;8.10;59.10;;;;;;5071971;28;20586;-88
2022/01/17 01:59:40;;;;;;;15.37;11.00;;;8.20;59.10;;;;;;5076866;28;20459;-87
2022/01/17 02:02:07;;;;;;;22.47;11.57;;;8.30;58.90;;;;;;5081530;28;20518;-87
2022/01/17 02:04:36;;;;;;;17.30;11.27;;;8.30;58.80;;;;;;5080405;28;20451;-88
2022/01/17 02:07:03;;;;;;;20.90;11.77;;;8.10;59.30;;;;;;5075055;28;20554;-87
2022/01/17 02:09:30;;;;;;;21.20;11.10;;;8.20;59.20;;;;;;5060696;28;20563;-87
2022/01/17 02:11:58;;;;;;;21.03;11.60;;;8.10;59.10;;;;;;5075613;28;20475;-88
2022/01/17 02:14:25;;;;;;;18.10;10.33;;;8.00;59.50;;;;;;5078011;28;20462;-87
2022/01/17 02:16:52;;;;;;;20.97;11.60;;;8.00;59.80;;;;;;5082315;28;20456;-87
2022/01/17 02:19:22;;;;;;;21.40;12.20;;;8.00;59.70;;;;;;5076099;28;20508;-87
2022/01/17 02:21:50;;;;;;;23.47;13.00;;;7.90;59.90;;;;;;5076211;28;20476;-89
2022/01/17 02:24:20;;;;;;;20.80;11.37;;;7.80;60.00;;;;;;5058815;28;20459;-88
2022/01/17 02:26:49;;;;;;;22.10;11.10;;;7.70;60.40;;;;;;5075551;28;20452;-88
2022/01/17 02:29:17;;;;;;;21.53;11.17;;;7.80;60.60;;;;;;5074358;28;20610;-88
2022/01/17 02:31:45;;;;;;;22.40;12.30;;;7.70;60.70;;;;;;5075662;28;20467;-87
2022/01/17 02:34:12;;;;;;;21.13;11.03;;;7.90;61.30;;;;;;5060500;28;20977;-87
2022/01/17 02:36:40;;;;;;;16.97;10.27;;;8.00;60.20;;;;;;5076976;28;20445;-88
2022/01/17 02:39:08;;;;;;;16.47;10.33;;;7.80;60.00;;;;;;5076633;28;20449;-87
2022/01/17 02:41:39;;;;;;;21.00;12.70;;;7.80;60.70;;;;;;5071762;28;20841;-88
2022/01/17 02:44:06;;;;;;;23.23;10.30;;;7.70;60.60;;;;;;5074582;28;20463;-88
2022/01/17 02:46:33;;;;;;;18.97;11.00;;;7.60;61.10;;;;;;5076517;28;20460;-88
2022/01/17 02:49:04;;;;;;;19.90;11.50;;;7.50;61.10;;;;;;5073487;28;20558;-88
2022/01/17 02:51:31;;;;;;;15.63;9.87;;;7.50;61.30;;;;;;5075877;28;21041;-88
2022/01/17 02:53:59;;;;;;;19.50;11.20;;;7.50;61.50;;;;;;5074851;28;20505;-87
2022/01/17 02:56:27;;;;;;;21.97;11.40;;;7.60;61.80;;;;;;5076947;28;20456;-87
2022/01/17 02:58:54;;;;;;;19.47;10.80;;;7.60;61.50;;;;;;5074051;28;20543;-88
2022/01/17 03:01:24;;;;;;;25.10;11.57;;;7.70;61.40;;;;;;5076612;28;20521;-87
2022/01/17 03:03:51;;;;;;;19.30;11.13;;;8.00;61.10;;;;;;5071400;28;20469;-87
2022/01/17 03:06:19;;;;;;;20.33;11.03;;;8.10;60.70;;;;;;5075934;28;21043;-88
2022/01/17 03:08:46;;;;;;;17.27;10.53;;;7.90;60.80;;;;;;5073607;28;20458;-88
2022/01/17 03:11:18;;;;;;;17.83;11.00;;;7.80;60.80;;;;;;5071628;28;20473;-87
2022/01/17 03:13:48;;;;;;;21.77;11.30;;;7.80;60.80;;;;;;5076931;28;20935;-88
2022/01/17 03:16:16;;;;;;;19.43;10.57;;;7.70;61.00;;;;;;5074768;28;20458;-87
2022/01/17 03:18:45;;;;;;;21.83;11.47;;;7.60;61.10;;;;;;5078976;28;20463;-85
2022/01/17 03:21:15;;;;;;;14.40;9.07;;;7.60;61.20;;;;;;5077134;28;21359;-88
2022/01/17 03:23:43;;;;;;;22.20;11.33;;;7.60;62.00;;;;;;5077616;28;22402;-88
2022/01/17 03:26:11;;;;;;;21.90;11.47;;;7.70;61.90;;;;;;5074881;28;20443;-88
2022/01/17 03:28:39;;;;;;;24.23;11.77;;;7.60;60.60;;;;;;5073705;28;20542;-87
2022/01/17 03:31:08;;;;;;;18.77;11.20;;;7.50;61.30;;;;;;5079970;28;20634;-87
2022/01/17 03:33:36;;;;;;;18.47;9.80;;;7.40;61.50;;;;;;5075006;28;20457;-87
2022/01/17 03:36:04;;;;;;;18.63;10.50;;;7.30;61.50;;;;;;5076362;28;20535;-89
2022/01/17 03:38:34;;;;;;;18.17;11.03;;;7.40;61.40;;;;;;5077084;28;20447;-87
2022/01/17 03:41:02;;;;;;;21.97;11.50;;;7.30;61.60;;;;;;5059249;28;20974;-87
2022/01/17 03:43:29;;;;;;;23.77;10.13;;;7.30;61.80;;;;;;5052975;28;20455;-88
2022/01/17 03:45:58;;;;;;;18.83;11.37;;;7.10;62.10;;;;;;5063116;28;20492;-87
2022/01/17 03:48:28;;;;;;;21.73;11.43;;;7.30;62.40;;;;;;5071899;28;20952;-87
2022/01/17 03:50:56;;;;;;;19.07;11.50;;;7.50;61.80;;;;;;5073803;28;20476;-86
2022/01/17 03:53:24;;;;;;;22.80;10.80;;;7.50;61.50;;;;;;5073944;28;20929;-86
2022/01/17 03:55:51;;;;;;;19.93;10.43;;;7.60;61.20;;;;;;5077551;28;20459;-87
2022/01/17 03:58:21;;;;;;;21.23;12.17;;;7.60;61.20;;;;;;5057489;28;20457;-88
2022/01/17 04:00:50;;;;;;;23.17;12.00;;;7.80;60.90;;;;;;5076100;28;20542;-87
2022/01/17 04:03:18;;;;;;;20.37;11.23;;;7.80;60.50;;;;;;5074288;28;20476;-88
2022/01/17 04:05:46;;;;;;;26.00;12.27;;;7.70;60.40;;;;;;5060036;28;20467;-87
2022/01/17 04:08:14;;;;;;;28.77;12.80;;;7.60;60.70;;;;;;5074975;28;20455;-88
2022/01/17 04:10:41;;;;;;;26.23;12.73;;;7.70;60.70;;;;;;5075599;28;20557;-88
2022/01/17 04:13:09;;;;;;;33.57;14.30;;;7.60;60.70;;;;;;5051972;28;20738;-87
2022/01/17 04:15:37;;;;;;;26.87;15.33;;;7.70;60.60;;;;;;5074843;28;20528;-85
2022/01/17 04:18:05;;;;;;;26.53;14.00;;;7.70;60.30;;;;;;5076150;28;20806;-87
2022/01/17 04:20:32;;;;;;;34.47;17.10;;;7.90;59.90;;;;;;5076990;28;20958;-88
2022/01/17 04:23:06;;;;;;;35.10;16.97;;;8.10;59.70;;;;;;5076114;28;20474;-88
2022/01/17 04:25:35;;;;;;;29.50;14.07;;;8.20;59.40;;;;;;5076194;28;20970;-88
2022/01/17 04:28:02;;;;;;;22.43;11.50;;;8.20;59.20;;;;;;5072876;28;20444;-88
2022/01/17 04:30:30;;;;;;;27.30;12.83;;;7.70;60.00;;;;;;5071320;28;20555;-87
2022/01/17 04:32:57;;;;;;;33.30;14.10;;;7.80;60.10;;;;;;5073460;28;20450;-88
2022/01/17 04:35:26;;;;;;;57.20;24.93;;;7.80;59.70;;;;;;5071564;28;20467;-86
2022/01/17 04:37:55;;;;;;;27.00;13.90;;;7.70;60.00;;;;;;5072812;28;20575;-88
2022/01/17 04:40:34;;;;;;;22.03;12.83;;;7.60;60.30;;;;;;5056767;28;21043;-86
2022/01/17 04:43:04;;;;;;;17.00;10.67;;;7.50;60.80;;;;;;5054781;28;20551;-88
2022/01/17 04:45:31;;;;;;;21.73;10.10;;;7.50;60.60;;;;;;5057022;28;20462;-88
2022/01/17 04:47:58;;;;;;;16.60;11.83;;;7.40;60.40;;;;;;5058172;28;20459;-87
2022/01/17 04:50:27;;;;;;;24.00;11.53;;;7.40;61.50;;;;;;5075064;28;20483;-87
2022/01/17 04:52:56;;;;;;;16.10;9.33;;;7.50;61.40;;;;;;5075673;28;20913;-87
2022/01/17 04:55:24;;;;;;;19.73;10.77;;;7.60;61.00;;;;;;5077579;28;20677;-85
2022/01/17 04:57:56;;;;;;;18.93;10.00;;;7.50;61.20;;;;;;5075170;28;20483;-88
2022/01/17 05:00:24;;;;;;;18.90;10.60;;;7.50;60.80;;;;;;5072153;28;20494;-85
2022/01/17 05:02:51;;;;;;;20.83;8.83;;;7.50;60.80;;;;;;5073288;28;20451;-87
2022/01/17 05:05:18;;;;;;;18.27;9.63;;;7.40;60.80;;;;;;5058289;28;20452;-87
2022/01/17 05:07:46;;;;;;;20.30;9.83;;;7.30;61.60;;;;;;5075627;28;20546;-88
2022/01/17 05:10:16;;;;;;;18.27;10.43;;;7.40;61.40;;;;;;5074308;28;20472;-88
2022/01/17 05:12:44;;;;;;;24.20;9.43;;;7.50;61.60;;;;;;5078138;28;20460;-87
2022/01/17 05:15:31;;;;;;;16.27;9.10;;;7.70;60.90;;;;;;5070778;28;21020;-88
2022/01/17 05:18:23;;;;;;;19.23;10.30;;;7.80;60.30;;;;;;5062725;28;20528;-87
2022/01/17 05:20:50;;;;;;;20.23;9.90;;;7.80;61.20;;;;;;5056070;28;20472;-88
2022/01/17 05:23:17;;;;;;;19.40;10.90;;;7.70;60.50;;;;;;5054308;28;20458;-87
2022/01/17 05:25:44;;;;;;;17.03;9.43;;;7.80;60.30;;;;;;5047004;28;20916;-87
2022/01/17 05:28:11;;;;;;;13.07;8.30;;;7.70;60.00;;;;;;5051364;28;20460;-88
2022/01/17 05:30:40;;;;;;;17.03;7.20;;;7.90;60.10;;;;;;5072914;28;20522;-86
2022/01/17 05:33:07;;;;;;;13.37;8.03;;;7.90;59.70;;;;;;5073557;28;20467;-88
2022/01/17 05:35:34;;;;;;;13.20;7.70;;;7.80;59.90;;;;;;5078670;28;20475;-88
2022/01/17 05:38:01;;;;;;;16.57;8.70;;;7.70;59.90;;;;;;5060341;28;20460;-87
2022/01/17 05:40:28;;;;;;;12.10;7.60;;;7.50;60.50;;;;;;5074008;28;20450;-86
2022/01/17 05:42:56;;;;;;;11.93;7.27;;;7.70;60.60;;;;;;5074228;28;20459;-88
2022/01/17 05:45:23;;;;;;;15.50;9.93;;;7.60;60.60;;;;;;5077571;28;20456;-85
2022/01/17 05:47:52;;;;;;;19.63;10.40;;;7.50;60.70;;;;;;5073980;28;20470;-87
2022/01/17 05:50:19;;;;;;;17.00;8.20;;;7.40;61.20;;;;;;5072071;28;20476;-85
2022/01/17 05:52:46;;;;;;;22.30;9.67;;;7.50;61.10;;;;;;5069959;28;20467;-87
2022/01/17 05:55:15;;;;;;;16.10;8.17;;;7.60;60.90;;;;;;5073986;28;20834;-88
2022/01/17 05:57:42;;;;;;;15.80;8.80;;;7.90;60.70;;;;;;5048627;28;20459;-88
2022/01/17 06:00:13;;;;;;;15.70;8.17;;;7.80;60.20;;;;;;5056442;28;20447;-88
2022/01/17 06:02:40;;;;;;;15.63;11.83;;;7.70;60.80;;;;;;5057450;28;20473;-88
2022/01/17 06:05:09;;;;;;;15.90;9.27;;;7.80;60.10;;;;;;5062718;28;20457;-88
2022/01/17 06:07:36;;;;;;;20.70;8.13;;;7.80;60.00;;;;;;5073225;28;20460;-88
2022/01/17 06:10:04;;;;;;;11.03;7.63;;;7.80;60.40;;;;;;5073671;28;20472;-86
2022/01/17 06:12:31;;;;;;;19.17;8.27;;;7.70;60.20;;;;;;5075880;28;20475;-88
2022/01/17 06:14:58;;;;;;;14.30;8.43;;;7.60;60.70;;;;;;5055975;28;20897;-88
2022/01/17 06:17:25;;;;;;;15.70;9.97;;;7.60;60.80;;;;;;5066370;28;20837;-88
2022/01/17 06:19:52;;;;;;;14.60;8.37;;;7.80;60.50;;;;;;5058287;28;20452;-89
2022/01/17 06:22:20;;;;;;;13.57;7.20;;;7.80;60.30;;;;;;5074342;28;20568;-88
2022/01/17 06:24:47;;;;;;;11.30;8.60;;;7.70;60.40;;;;;;5076946;28;20453;-88
2022/01/17 06:27:14;;;;;;;16.13;9.50;;;7.70;60.60;;;;;;5075983;28;20471;-87
2022/01/17 06:29:41;;;;;;;12.43;7.37;;;7.60;60.70;;;;;;5061700;28;20443;-87
2022/01/17 06:32:09;;;;;;;13.33;7.50;;;7.50;60.90;;;;;;5046521;28;20563;-89
2022/01/17 06:34:36;;;;;;;18.73;8.23;;;7.60;61.10;;;;;;5075983;28;20439;-88
2022/01/17 06:37:03;;;;;;;18.10;11.27;;;7.80;60.60;;;;;;5073855;28;20463;-87
2022/01/17 06:39:32;;;;;;;15.63;9.57;;;7.90;60.20;;;;;;5071182;28;20459;-88
2022/01/17 06:41:59;;;;;;;12.67;8.80;;;7.80;60.20;;;;;;5070074;28;20481;-90
2022/01/17 06:44:26;;;;;;;15.70;9.27;;;7.70;60.50;;;;;;5053873;28;20463;-88
2022/01/17 06:46:53;;;;;;;15.50;11.43;;;7.70;60.80;;;;;;5039443;28;21009;-88
2022/01/17 06:49:20;;;;;;;12.80;9.70;;;7.80;60.70;;;;;;5052269;28;20448;-87
2022/01/17 06:51:47;;;;;;;9.53;6.73;;;7.90;60.60;;;;;;5055158;28;20479;-88
2022/01/17 06:54:14;;;;;;;12.33;7.10;;;7.90;59.90;;;;;;5072301;28;20464;-85
2022/01/17 06:56:44;;;;;;;12.30;7.37;;;7.70;60.10;;;;;;5069395;28;20443;-87
2022/01/17 06:59:11;;;;;;;19.70;10.13;;;7.50;61.00;;;;;;5054406;28;20459;-88
2022/01/17 07:01:39;;;;;;;15.90;9.67;;;7.50;61.30;;;;;;5057018;28;20464;-88
2022/01/17 07:04:07;;;;;;;13.17;7.70;;;7.50;61.30;;;;;;5072295;28;20623;-88
2022/01/17 07:06:37;;;;;;;15.90;10.57;;;7.40;61.30;;;;;;5066002;28;20615;-88
2022/01/17 07:09:05;;;;;;;18.43;7.93;;;7.60;61.10;;;;;;5074925;28;20905;-88
2022/01/17 07:11:37;;;;;;;15.70;8.23;;;7.70;60.70;;;;;;5072323;28;20479;-88
2022/01/17 07:14:08;;;;;;;15.17;9.20;;;7.60;60.90;;;;;;5071767;28;20457;-87
2022/01/17 07:16:35;;;;;;;16.93;8.87;;;7.70;60.60;;;;;;5069084;28;20487;-90
2022/01/17 07:19:03;;;;;;;17.97;7.53;;;7.80;60.60;;;;;;5071569;28;20467;-86
2022/01/17 07:21:30;;;;;;;12.07;8.10;;;8.00;60.00;;;;;;5070262;28;20467;-89
2022/01/17 07:23:57;;;;;;;13.87;7.63;;;8.10;59.60;;;;;;5072125;28;20453;-88
2022/01/17 07:26:24;;;;;;;18.23;7.13;;;8.10;59.60;;;;;;5049958;28;20848;-87
2022/01/17 07:28:51;;;;;;;16.50;8.13;;;7.70;60.50;;;;;;5032829;28;20892;-90
2022/01/17 07:31:20;;;;;;;12.80;8.57;;;7.70;60.80;;;;;;5037230;28;20570;-88
2022/01/17 07:33:47;;;;;;;14.70;9.60;;;7.70;60.60;;;;;;5069669;28;20999;-88
2022/01/17 07:36:18;;;;;;;12.87;7.90;;;7.60;60.60;;;;;;5069868;28;20851;-90
2022/01/17 07:38:45;;;;;;;15.87;9.30;;;7.70;60.50;;;;;;5067778;28;20448;-90
2022/01/17 07:41:12;;;;;;;14.40;7.73;;;7.70;60.30;;;;;;5068513;28;20468;-89
2022/01/17 07:43:39;;;;;;;16.00;8.07;;;7.70;60.20;;;;;;5052837;28;20463;-89
2022/01/17 07:46:13;;;;;;;16.50;9.93;;;7.70;60.50;;;;;;5069995;28;20980;-88
2022/01/17 07:49:09;;;;;;;12.03;7.43;;;7.80;60.40;;;;;;5029783;28;20464;-90
2022/01/17 07:51:37;;;;;;;15.20;7.50;;;7.70;60.50;;;;;;5053596;28;20488;-88
2022/01/17 07:54:05;;;;;;;13.70;9.13;;;7.80;60.50;;;;;;5036423;28;20455;-89
2022/01/17 07:56:33;;;;;;;12.87;8.20;;;7.80;60.10;;;;;;5068841;28;21392;-88
2022/01/17 07:59:00;;;;;;;11.60;8.10;;;7.80;60.20;;;;;;5073456;28;20459;-89
2022/01/17 08:01:28;;;;;;;13.40;8.07;;;7.80;60.10;;;;;;5068947;28;21009;-87
2022/01/17 08:03:56;;;;;;;10.90;7.87;;;8.00;60.10;;;;;;5053564;28;21158;-87
2022/01/17 08:06:24;;;;;;;14.83;7.60;;;8.20;59.60;;;;;;5069651;28;20494;-85
2022/01/17 08:08:51;;;;;;;16.70;8.27;;;8.30;59.00;;;;;;5068063;28;20676;-88
2022/01/17 08:11:18;;;;;;;11.87;6.03;;;8.00;59.50;;;;;;5056537;28;21021;-87
2022/01/17 08:13:45;;;;;;;12.83;7.63;;;7.90;59.70;;;;;;5072157;28;20488;-88
2022/01/17 08:16:14;;;;;;;9.20;7.07;;;7.80;60.20;;;;;;5068819;28;20451;-87
2022/01/17 08:18:41;;;;;;;13.43;7.67;;;7.80;60.10;;;;;;5070029;28;20504;-87
2022/01/17 08:21:10;;;;;;;11.10;6.20;;;7.90;59.70;;;;;;5067890;28;20469;-87
2022/01/17 08:23:37;;;;;;;12.67;7.67;;;7.80;60.00;;;;;;5069768;28;20466;-86
2022/01/17 08:26:04;;;;;;;13.20;6.73;;;7.70;60.20;;;;;;5069504;28;20457;-88
2022/01/17 08:28:31;;;;;;;10.00;5.93;;;7.70;59.90;;;;;;5068133;28;20880;-88
2022/01/17 08:30:58;;;;;;;13.33;6.97;;;7.80;60.00;;;;;;5065245;28;20486;-87
2022/01/17 08:33:25;;;;;;;10.90;6.37;;;8.10;59.70;;;;;;5069624;28;20465;-88
2022/01/17 08:35:52;;;;;;;12.43;5.87;;;8.20;59.10;;;;;;5069262;28;20735;-87
2022/01/17 08:38:20;;;;;;;10.10;6.60;;;8.20;59.10;;;;;;5068749;28;20475;-88
2022/01/17 08:40:47;;;;;;;13.10;7.00;;;8.30;58.90;;;;;;5068674;28;20482;-88
2022/01/17 08:43:14;;;;;;;11.10;6.00;;;8.30;58.90;;;;;;5069456;28;20456;-89
2022/01/17 08:45:41;;;;;;;11.67;6.33;;;8.10;58.90;;;;;;5072983;28;20455;-87
2022/01/17 08:48:09;;;;;;;11.27;5.97;;;8.10;59.10;;;;;;5070888;28;20462;-89
2022/01/17 08:50:36;;;;;;;12.43;6.37;;;8.00;59.40;;;;;;5068552;28;20539;-90
2022/01/17 08:53:03;;;;;;;12.87;6.23;;;8.10;59.00;;;;;;5070288;28;20450;-88
2022/01/17 08:55:32;;;;;;;11.70;6.07;;;8.30;58.80;;;;;;5070665;28;20733;-87
2022/01/17 08:58:00;;;;;;;10.83;6.27;;;8.30;58.40;;;;;;5049078;28;20458;-88
2022/01/17 09:00:27;;;;;;;13.30;6.83;;;8.40;58.50;;;;;;5073927;28;20483;-88
2022/01/17 09:02:54;;;;;;;21.93;10.93;;;8.30;58.20;;;;;;5059618;28;20556;-89
2022/01/17 09:05:21;;;;;;;64.57;20.63;;;8.20;58.60;;;;;;5077563;28;20456;-88
2022/01/17 09:07:48;;;;;;;286.43;71.83;;;8.20;58.80;;;;;;5069671;28;20887;-89
2022/01/17 09:10:16;;;;;;;81.87;27.80;;;8.40;58.50;;;;;;5054777;28;20812;-88
2022/01/17 09:12:45;;;;;;;10.80;6.50;;;8.30;58.50;;;;;;5045450;28;20476;-88
2022/01/17 09:15:13;;;;;;;10.70;5.67;;;8.30;58.50;;;;;;5049566;28;20463;-88
2022/01/17 09:17:40;;;;;;;7.90;5.90;;;8.40;58.50;;;;;;5033341;28;22061;-87
2022/01/17 09:20:08;;;;;;;11.27;6.40;;;8.50;58.10;;;;;;5058699;28;21052;-90
2022/01/17 09:22:35;;;;;;;8.00;5.70;;;8.60;57.90;;;;;;5076578;28;20829;-88
2022/01/17 09:25:06;;;;;;;9.20;5.23;;;8.60;57.60;;;;;;5077818;28;20868;-88
2022/01/17 09:27:33;;;;;;;9.60;5.47;;;8.70;57.80;;;;;;5053550;28;20495;-89
2022/01/17 09:30:02;;;;;;;12.03;5.30;;;8.60;57.00;;;;;;5078136;28;20444;-88
2022/01/17 09:32:29;;;;;;;6.90;5.60;;;8.60;57.40;;;;;;5080154;28;20484;-89
2022/01/17 09:34:56;;;;;;;10.30;6.10;;;8.60;57.50;;;;;;5033877;28;20880;-90
2022/01/17 09:37:23;;;;;;;12.47;6.40;;;8.60;57.50;;;;;;5050917;28;20522;-89
2022/01/17 09:39:50;;;;;;;8.60;5.50;;;8.50;57.70;;;;;;5020376;28;20556;-90
2022/01/17 09:42:17;;;;;;;10.07;6.20;;;8.80;57.20;;;;;;5020809;28;20469;-89
2022/01/17 09:44:44;;;;;;;7.83;4.93;;;8.70;56.90;;;;;;5044295;28;20959;-89
2022/01/17 09:47:13;;;;;;;9.77;5.40;;;8.80;56.90;;;;;;5020443;28;20926;-88
2022/01/17 09:49:44;;;;;;;8.67;5.10;;;8.70;57.00;;;;;;5019221;28;20459;-89
2022/01/17 09:52:34;;;;;;;7.23;4.80;;;8.70;57.30;;;;;;5024613;28;20479;-88
2022/01/17 09:55:05;;;;;;;6.30;4.63;;;8.90;57.00;;;;;;5079992;28;20444;-88
2022/01/17 09:57:38;;;;;;;8.90;4.67;;;9.00;56.60;;;;;;5040965;28;20432;-89
2022/01/17 10:00:08;;;;;;;8.80;5.27;;;8.90;57.00;;;;;;5062597;28;20450;-87
2022/01/17 10:02:43;;;;;;;9.47;5.73;;;8.80;57.00;;;;;;5063581;28;20471;-88
2022/01/17 10:05:11;;;;;;;8.20;5.40;;;8.70;57.20;;;;;;5067606;28;20460;-89
2022/01/17 10:07:56;;;;;;;8.97;5.20;;;8.80;57.00;;;;;;5050855;28;20553;-88
2022/01/17 10:10:38;;;;;;;7.73;4.80;;;8.90;57.00;;;;;;5086643;28;20491;-88
2022/01/17 10:13:07;;;;;;;4.70;3.87;;;8.80;56.70;;;;;;5061995;28;20837;-89
2022/01/17 10:15:45;;;;;;;10.57;6.27;;;8.90;56.50;;;;;;5079747;28;20456;-89
2022/01/17 10:18:26;;;;;;;12.60;5.00;;;8.70;57.50;;;;;;5048000;28;20455;-89
2022/01/17 10:20:57;;;;;;;9.90;4.80;;;8.90;57.00;;;;;;5057153;28;20495;-91
2022/01/17 10:23:46;;;;;;;7.10;5.13;;;8.90;56.70;;;;;;5041161;28;20455;-89
2022/01/17 10:26:30;;;;;;;10.10;4.23;;;8.90;56.80;;;;;;5023902;28;20484;-91
2022/01/17 10:29:27;;;;;;;10.50;6.30;;;9.00;56.10;;;;;;5041254;28;20590;-87
2022/01/17 10:34:54;;;;;;;11.97;5.70;;;9.10;56.40;;;;;;5042125;28;20440;-88
2022/01/17 10:37:23;;;;;;;10.10;5.40;;;9.10;56.30;;;;;;5043844;28;20455;-90
2022/01/17 10:39:57;;;;;;;11.03;5.13;;;8.80;56.40;;;;;;5046499;28;20452;-89
2022/01/17 10:42:26;;;;;;;7.93;6.40;;;8.70;56.60;;;;;;5027056;28;20559;-90
2022/01/17 10:44:54;;;;;;;12.10;5.80;;;8.60;57.00;;;;;;5028088;28;20954;-88
2022/01/17 10:47:24;;;;;;;10.37;5.10;;;8.60;56.90;;;;;;5031118;28;20872;-89
2022/01/17 10:49:55;;;;;;;10.60;5.40;;;8.70;56.60;;;;;;5047719;28;20460;-88
2022/01/17 10:52:35;;;;;;;11.93;5.23;;;8.60;56.60;;;;;;5042164;28;20522;-90
2022/01/17 10:55:07;;;;;;;7.63;4.90;;;8.60;57.10;;;;;;5057715;28;20550;-88
2022/01/17 10:57:35;;;;;;;7.40;5.13;;;8.50;56.80;;;;;;5045529;28;20559;-91
2022/01/17 11:00:08;;;;;;;7.10;4.73;;;8.50;57.10;;;;;;5027538;28;20463;-89
2022/01/17 11:02:36;;;;;;;10.43;5.30;;;8.60;56.70;;;;;;5041489;28;20499;-92
2022/01/17 11:05:07;;;;;;;6.70;4.10;;;8.50;56.80;;;;;;5038169;28;20481;-91
2022/01/17 11:07:40;;;;;;;13.90;5.73;;;8.60;57.10;;;;;;5056125;28;20533;-88
2022/01/17 11:10:14;;;;;;;8.70;4.20;;;8.90;56.60;;;;;;5040937;28;20831;-90
2022/01/17 11:12:41;;;;;;;8.03;4.30;;;8.80;55.90;;;;;;5056057;28;20869;-90
2022/01/17 11:15:08;;;;;;;6.70;3.93;;;8.60;56.40;;;;;;5069362;28;20452;-89
2022/01/17 11:17:38;;;;;;;9.87;5.70;;;8.70;56.60;;;;;;5039008;28;20452;-91
2022/01/17 11:20:09;;;;;;;6.00;4.30;;;8.80;56.30;;;;;;5063837;28;20558;-88
2022/01/17 11:22:38;;;;;;;8.27;5.00;;;8.70;56.10;;;;;;5078805;28;20905;-89
2022/01/17 11:25:07;;;;;;;6.00;4.73;;;8.60;56.20;;;;;;5056451;28;20499;-89
2022/01/17 11:27:35;;;;;;;5.27;4.00;;;8.70;56.50;;;;;;5044392;28;20464;-88
2022/01/17 11:30:05;;;;;;;9.40;4.50;;;8.80;56.40;;;;;;5033031;28;20825;-89
2022/01/17 11:32:32;;;;;;;8.00;5.60;;;9.10;56.00;;;;;;5056598;28;20967;-88
2022/01/17 11:35:01;;;;;;;6.80;4.50;;;9.10;55.80;;;;;;5045310;28;20447;-88
2022/01/17 11:37:34;;;;;;;8.27;5.33;;;9.10;55.10;;;;;;5039355;28;20475;-90
2022/01/17 11:40:01;;;;;;;10.87;6.23;;;9.30;55.50;;;;;;5045564;28;20444;-90
2022/01/17 11:42:31;;;;;;;8.40;5.23;;;9.50;55.30;;;;;;5036536;28;20464;-92
2022/01/17 11:44:58;;;;;;;7.73;4.63;;;9.60;54.80;;;;;;5030250;28;20460;-91
2022/01/17 11:47:47;;;;;;;7.00;3.47;;;9.70;54.60;;;;;;5057613;28;20474;-93
2022/01/17 11:50:34;;;;;;;6.43;4.10;;;9.50;54.40;;;;;;5026218;28;20452;-91
2022/01/17 11:53:40;;;;;;;7.50;4.67;;;9.30;53.80;;;;;;5053982;28;20564;-89
2022/01/17 11:56:08;;;;;;;7.20;5.00;;;9.10;54.60;;;;;;5058643;28;20456;-91
2022/01/17 11:58:43;;;;;;;8.07;5.00;;;9.00;55.10;;;;;;5054691;28;20452;-88
2022/01/17 12:01:16;;;;;;;18.70;6.63;;;9.10;55.30;;;;;;5056877;28;20578;-89
2022/01/17 12:03:46;;;;;;;12.37;6.07;;;9.20;55.30;;;;;;5048802;28;20456;-90
2022/01/17 12:06:23;;;;;;;8.17;5.63;;;9.40;55.00;;;;;;5062475;28;20555;-87
2022/01/17 12:09:12;;;;;;;5.30;4.20;;;9.50;54.80;;;;;;5048897;28;20609;-89
2022/01/17 12:11:39;;;;;;;10.33;5.70;;;9.20;54.30;;;;;;5074855;28;20487;-90
2022/01/17 12:14:22;;;;;;;9.97;5.27;;;9.00;54.80;;;;;;5076829;28;20462;-89
2022/01/17 12:16:49;;;;;;;7.13;5.40;;;9.00;55.30;;;;;;5056468;28;20487;-90
2022/01/17 12:19:16;;;;;;;10.40;5.37;;;8.90;55.30;;;;;;5058643;28;20542;-89
2022/01/17 12:21:53;;;;;;;7.10;4.53;;;8.90;55.40;;;;;;5041425;28;20467;-89
2022/01/17 12:24:42;;;;;;;7.00;4.33;;;9.00;55.10;;;;;;5053879;28;20605;-87
2022/01/17 12:27:20;;;;;;;8.47;4.07;;;9.00;55.40;;;;;;5069755;28;20477;-89
2022/01/17 12:29:54;;;;;;;7.93;4.27;;;8.90;55.60;;;;;;5041748;28;20534;-89
2022/01/17 12:32:50;;;;;;;6.70;3.87;;;8.90;55.40;;;;;;5040742;28;20471;-89
2022/01/17 12:35:22;;;;;;;7.80;5.30;;;8.90;55.30;;;;;;5073875;28;20557;-90
2022/01/17 12:37:51;;;;;;;8.13;4.83;;;9.00;56.00;;;;;;5038254;28;20464;-91
2022/01/17 12:40:22;;;;;;;7.10;4.43;;;9.00;55.50;;;;;;5071716;28;20555;-90
2022/01/17 12:42:52;;;;;;;6.37;5.10;;;9.10;55.30;;;;;;5053691;28;20459;-89
2022/01/17 12:45:20;;;;;;;5.53;4.20;;;9.10;55.50;;;;;;5072837;28;20456;-91
2022/01/17 12:47:48;;;;;;;5.17;4.67;;;9.10;55.10;;;;;;5057788;28;20481;-90
2022/01/17 12:50:15;;;;;;;11.03;5.27;;;9.20;55.20;;;;;;5054215;28;20461;-91
2022/01/17 12:52:42;;;;;;;11.07;4.13;;;9.20;55.50;;;;;;5071524;28;20511;-90
2022/01/17 12:55:10;;;;;;;8.70;4.60;;;9.30;55.70;;;;;;5054437;28;20478;-91
2022/01/17 12:57:43;;;;;;;8.80;4.53;;;9.20;55.80;;;;;;5057220;28;20464;-90
2022/01/17 13:00:16;;;;;;;9.33;5.00;;;9.00;55.70;;;;;;5070720;28;20480;-89
2022/01/17 13:02:48;;;;;;;5.47;4.37;;;9.00;55.60;;;;;;5063319;28;20517;-90
2022/01/17 13:05:15;;;;;;;9.67;6.93;;;9.20;56.10;;;;;;5037681;28;20868;-90
2022/01/17 13:07:43;;;;;;;6.47;4.43;;;9.20;55.80;;;;;;5060847;28;20439;-90
2022/01/17 13:10:11;;;;;;;11.93;6.60;;;8.90;56.00;;;;;;5054445;28;20906;-90